EGGWEGGP

Guest
Details From EGGW - London Luton
To EGGP - Liverpool
Flight Number -
Tags generated
Created
Modified
Stats Distance 126 nm / 233 km
Max Altitude 0 ft / 0 m
Waypoints 2
Social Downloads 4
Likes 0
Share VATSIM

Download

Looking for another format? Having issues loading an existing format? Contact us
Advertisement - Login to hide

Notes

Basic altitude profile: - Ascent Rate: 2500ft/min - Ascent Speed: 250kts - Cruise Altitude: 35000ft - Cruise Speed: 420kts - Descent Rate: 1500ft/min - Descent Speed: 250kts Options: - Use NATs: no - Use PACOTS: no - Use low airways: no - Use high airways: no

Route

EGGW EGGP

ID Type Via Altitude (ft/m) Position (lat/lon) Dist (leg/tot) Name
O EGGW APT - 0 / 0 51.87463 / -0.36845 - / 0 nm London Luton
O EGGP APT - 0 / 0 53.33363 / -2.84977 125 / 125 nm Liverpool

Altitude Profile

Advertisement - Login to hide

EGGW

Details ICAO EGGW (LTN)
Name London Luton
Region United Kingdom
Timezone Europe/London (UTC+1.0)
Stats Elevation 526 ft / 160 m (AMSL)
Location 51.874600° -0.368432°
Runways 1
Magnetic Variation 0.360° W

METAR

EGGW 211320Z AUTO 32010KT 9999 BKN044 18/06 Q1018

Decode

TAF

TAF EGGW 211101Z 2112/2212 32009KT 9999 FEW040

Decode

Departure Runways

ID Width Length Bearing (true/mag) Surface Threshold Overrun Markings Lighting
08 150 ft / 46 m 7,067 ft / 2,154 m 74.35° / 74.71° ASPHALT 0 ft / 0 m 197 ft / 60 m UK-PREC-APP CENTERLINE EDGE THRESHOLD ALSF-I REIL-OMNI
26 150 ft / 46 m 7,067 ft / 2,154 m 254.37° / 254.73° ASPHALT 279 ft / 85 m 0 ft / 0 m UK-PREC-APP CENTERLINE EDGE THRESHOLD CALVERT REIL-OMNI

EGGP

Details ICAO EGGP (LPL)
Name Liverpool John Lennon
Region United Kingdom
Timezone Europe/London (UTC+1.0)
Stats Elevation 81 ft / 25 m (AMSL)
Location 53.333600° -2.849780°
Runways 1
Magnetic Variation 1.448° W

METAR

EGGP 211320Z 30014KT 9999 FEW033 15/06 Q1020

Decode

TAF

TAF EGGP 211057Z 2112/2212 30009KT 9999 SCT028

Decode

Destination Runways

ID Width Length Bearing (true/mag) Surface Threshold Overrun Markings Lighting
09 148 ft / 45 m 7,478 ft / 2,279 m 85.58° / 87.03° ASPHALT 194 ft / 59 m 0 ft / 0 m UK-PREC-APP CENTERLINE EDGE THRESHOLD CALVERT
27 148 ft / 45 m 7,478 ft / 2,279 m 265.61° / 267.05° ASPHALT 0 ft / 0 m 82 ft / 25 m UK-PREC-APP CENTERLINE EDGE THRESHOLD CALVERT TDZ

Approach Navaids

Runway Type Ident Frequency Range Bearing (true/mag) Slope Elevation
09 DME ILVR 111.75 MHz 18 nm / 33 km - - 88 ft / 27 m (AMSL)
09 GS ILVR 111.75 MHz 10 nm / 19 km 86.20° / 87.65 ° 3.00° 80 ft / 24 m (AMSL)
09 LOC-ILS ILVR 111.75 MHz 18 nm / 33 km 85.61° / 87.06 ° - 77 ft / 23 m (AMSL)
27 LOC-ILS ILQ 111.75 MHz 18 nm / 33 km 265.05° / 266.50 ° - 55 ft / 17 m (AMSL)
27 DME ILQ 111.75 MHz 18 nm / 33 km - - 88 ft / 27 m (AMSL)
27 GS ILQ 111.75 MHz 10 nm / 19 km 266.20° / 267.65 ° 3.00° 80 ft / 24 m (AMSL)

Popular Alternatives